METAR Data
IDs: Format: Raw Decoded Include TAF

Data at: 1957 UTC 02 Oct 2022

METAR for:K04V (Saguache Muni, CO, US)
Text:K04V 021935Z AUTO 14004KT 10SM SCT016 BKN029 OVC090 10/06 A3043 RMK AO2 LTG DSNT W
Temperature: 10.0°C ( 50°F)
Dewpoint: 6.0°C ( 43°F) [RH = 76%]
Pressure (altimeter):30.43 inches Hg (1030.6 mb)
Winds:from the SE (140 degrees) at 5 MPH (4 knots; 2.1 m/s)
Visibility:10 or more sm (16+ km)
Ceiling:2900 feet AGL
Clouds: scattered clouds at 1600 feet AGL, broken clouds at 2900 feet AGL, overcast cloud deck at 9000 feet AGL
QC Flag:automated observation with no human augmentation